createdAt,value
2018-09-18T00:00:22.635Z,55.5
2018-09-18T00:05:23.323Z,55
2018-09-18T00:10:23.876Z,55.7
2018-09-18T00:15:22.587Z,55.5
2018-09-18T00:20:24.347Z,55.5
2018-09-18T00:25:24.205Z,55.8
2018-09-18T00:30:23.243Z,56.3
2018-09-18T00:35:22.434Z,56.4
2018-09-18T00:40:22.593Z,56.5
2018-09-18T00:45:22.488Z,57
2018-09-18T00:50:22.888Z,57.3
2018-09-18T00:55:22.209Z,57.3
2018-09-18T01:00:22.475Z,56.9
2018-09-18T01:05:23.349Z,57.2
2018-09-18T01:10:23.145Z,57.5
2018-09-18T01:15:22.840Z,57.7
2018-09-18T01:20:23.902Z,57.3
2018-09-18T01:25:23.100Z,57
2018-09-18T01:30:22.615Z,57.4
2018-09-18T01:35:22.980Z,58
2018-09-18T01:40:22.497Z,58.1
2018-09-18T01:45:22.748Z,57.4
2018-09-18T01:50:22.811Z,56.2
2018-09-18T01:55:23.746Z,56.6
2018-09-18T02:00:22.849Z,57.5
2018-09-18T02:05:27.879Z,58.4
2018-09-18T02:10:24.914Z,59.5
2018-09-18T02:15:22.973Z,60.2
2018-09-18T02:20:23.258Z,60.3
2018-09-18T02:25:24.002Z,60.5
2018-09-18T02:30:22.599Z,60.9
2018-09-18T02:35:23.583Z,61.7
2018-09-18T02:40:24.384Z,61.5
2018-09-18T02:45:22.720Z,62.2
2018-09-18T02:50:22.580Z,62.7
2018-09-18T02:55:22.615Z,62.8
2018-09-18T03:00:23.456Z,62.6
2018-09-18T03:05:26.961Z,62.7
2018-09-18T03:10:23.443Z,62.5
2018-09-18T03:15:23.563Z,62.7
2018-09-18T03:20:24.817Z,63.5
2018-09-18T03:25:22.222Z,63.5
2018-09-18T03:30:22.613Z,63.7
2018-09-18T03:35:22.198Z,64.2
2018-09-18T03:40:22.252Z,63.3
2018-09-18T03:45:22.685Z,62.3
2018-09-18T03:50:22.928Z,63.2
2018-09-18T03:55:24.002Z,63.4
2018-09-18T04:00:25.177Z,63.3
2018-09-18T04:05:23.454Z,62.8
2018-09-18T04:10:34.414Z,63.3
2018-09-18T04:15:22.563Z,63.6
2018-09-18T04:20:23.602Z,64.5
2018-09-18T04:25:22.332Z,65.2
2018-09-18T04:30:22.577Z,64.8
2018-09-18T04:35:22.546Z,65.1
2018-09-18T04:40:23.945Z,64.9
2018-09-18T04:45:22.218Z,64.4
2018-09-18T04:50:22.545Z,64.6
2018-09-18T04:55:22.984Z,65.1
2018-09-18T05:00:22.367Z,66.1
2018-09-18T05:05:28.108Z,65.5
2018-09-18T05:10:24.667Z,65
2018-09-18T05:15:23.164Z,64.1
2018-09-18T05:20:25.623Z,64.7
2018-09-18T05:25:22.347Z,65.5
2018-09-18T05:30:22.365Z,65.3
2018-09-18T05:35:22.128Z,65.4
2018-09-18T05:40:22.386Z,65.3
2018-09-18T05:45:22.169Z,64.5
2018-09-18T05:50:22.621Z,64.1
2018-09-18T05:55:22.231Z,64.1
2018-09-18T06:00:22.153Z,65.1
2018-09-18T06:05:22.207Z,65.1
2018-09-18T06:10:23.653Z,65.8
2018-09-18T06:15:22.056Z,65.5
2018-09-18T06:20:22.410Z,65.2
2018-09-18T06:25:22.104Z,65
2018-09-18T06:30:21.865Z,64.4
2018-09-18T06:35:22.040Z,64.6
2018-09-18T06:40:24.944Z,64
2018-09-18T06:45:22.047Z,63.8
2018-09-18T06:50:22.147Z,63.2
2018-09-18T06:55:22.297Z,61.7
2018-09-18T07:00:22.007Z,61.9
2018-09-18T07:05:22.105Z,61.6
2018-09-18T07:10:22.189Z,61.6
2018-09-18T07:15:22.089Z,61.2
2018-09-18T07:20:22.085Z,60.6
2018-09-18T07:25:21.911Z,60.2
2018-09-18T07:30:21.951Z,60.4
2018-09-18T07:35:21.812Z,58.6
2018-09-18T07:40:21.758Z,59.4
2018-09-18T07:45:22.551Z,59.2
2018-09-18T07:50:21.725Z,58.7
2018-09-18T07:55:21.968Z,57.8
2018-09-18T08:00:22.026Z,58
2018-09-18T08:05:22.337Z,57.2
2018-09-18T08:10:22.109Z,56
2018-09-18T08:15:21.921Z,57.1
2018-09-18T08:20:21.699Z,56
2018-09-18T08:25:22.225Z,55.6
2018-09-18T08:30:22.000Z,55.9
2018-09-18T08:35:21.679Z,56.2
2018-09-18T08:40:21.793Z,56.2
2018-09-18T08:45:21.970Z,56.1
2018-09-18T08:50:24.972Z,56.1
2018-09-18T08:55:21.986Z,55.6
2018-09-18T09:00:22.004Z,55.3
2018-09-18T09:05:21.793Z,54.8
2018-09-18T09:10:21.814Z,54.9
2018-09-18T09:15:22.098Z,55.3
2018-09-18T09:20:21.921Z,54.8
2018-09-18T09:25:21.836Z,55.8
2018-09-18T09:30:21.639Z,56.9
2018-09-18T09:35:21.967Z,56.4
2018-09-18T09:40:21.996Z,56.8
2018-09-18T09:45:22.179Z,56.1
2018-09-18T09:50:21.785Z,56.4
2018-09-18T09:55:22.582Z,55.9
2018-09-18T10:00:21.923Z,56.7
2018-09-18T10:05:21.822Z,57
2018-09-18T10:10:22.127Z,56.5
2018-09-18T10:15:21.472Z,56.6
2018-09-18T10:20:22.077Z,57.6
2018-09-18T10:25:23.263Z,57.8
2018-09-18T10:30:21.783Z,57.6
2018-09-18T10:35:21.768Z,57.5
2018-09-18T10:40:22.191Z,58.3
2018-09-18T10:45:21.645Z,58.1
2018-09-18T10:50:21.856Z,58.6
2018-09-18T10:55:22.197Z,59.5
2018-09-18T11:00:21.380Z,58.9
2018-09-18T11:05:21.765Z,57.8
2018-09-18T11:10:21.969Z,58.3
2018-09-18T11:15:21.504Z,57.5
2018-09-18T11:20:21.593Z,57.9
2018-09-18T11:25:21.880Z,57
2018-09-18T11:30:21.770Z,55.6
2018-09-18T11:35:21.545Z,55.9
2018-09-18T11:40:21.503Z,56.6
2018-09-18T11:45:21.744Z,55.5
2018-09-18T11:50:21.446Z,55.7
2018-09-18T11:55:21.707Z,55.7
2018-09-18T12:00:21.591Z,55.7
2018-09-18T12:05:21.328Z,55.9
2018-09-18T12:10:22.126Z,55.5
2018-09-18T12:15:22.138Z,54.5
2018-09-18T12:20:21.656Z,54.6
2018-09-18T12:25:21.952Z,54
2018-09-18T12:30:21.462Z,54.3
2018-09-18T12:35:21.893Z,53.5
2018-09-18T12:40:21.456Z,53.2
2018-09-18T12:45:22.224Z,52.6
2018-09-18T12:50:22.163Z,51.4
2018-09-18T12:55:21.388Z,50.5
2018-09-18T13:00:21.485Z,51.9
2018-09-18T13:05:21.576Z,51.1
2018-09-18T13:10:22.447Z,50.2
2018-09-18T13:15:22.050Z,50.3
2018-09-18T13:20:21.754Z,49.8
2018-09-18T13:25:21.265Z,48
2018-09-18T13:30:21.463Z,48.9
2018-09-18T13:35:21.311Z,48.7
2018-09-18T13:40:21.328Z,48.6
2018-09-18T13:45:21.371Z,49
2018-09-18T13:50:21.572Z,48.7
2018-09-18T13:55:21.728Z,49.6
2018-09-18T14:00:21.431Z,48.6
2018-09-18T14:05:21.957Z,48.9
2018-09-18T14:10:22.578Z,47.7
2018-09-18T14:15:21.906Z,46.6
2018-09-18T14:20:21.591Z,46.9
2018-09-18T14:25:21.453Z,48
2018-09-18T14:30:21.311Z,50.2
2018-09-18T14:35:21.464Z,49.5
2018-09-18T14:40:21.507Z,50
2018-09-18T14:45:21.381Z,49.2
2018-09-18T14:50:21.420Z,48
2018-09-18T14:55:21.314Z,49.7
2018-09-18T15:00:43.136Z,50
2018-09-18T15:05:21.679Z,48.8
2018-09-18T15:10:21.565Z,48.7
2018-09-18T15:15:21.501Z,47.3
2018-09-18T15:20:21.462Z,46.7
2018-09-18T15:25:21.382Z,45.8
2018-09-18T15:30:24.544Z,46.9
2018-09-18T15:35:21.476Z,48.1
2018-09-18T15:40:21.168Z,49.1
2018-09-18T15:45:21.251Z,47.1
2018-09-18T15:50:21.376Z,48.1
2018-09-18T15:55:22.160Z,47.9
2018-09-18T16:00:21.802Z,50.4
2018-09-18T16:05:21.501Z,53
2018-09-18T16:10:21.286Z,54.5
2018-09-18T16:15:21.432Z,56.2
2018-09-18T16:20:21.668Z,56.3
2018-09-18T16:25:21.282Z,56.9
2018-09-18T16:30:21.667Z,57.1
2018-09-18T16:35:21.491Z,58
2018-09-18T16:40:21.711Z,58.8
2018-09-18T16:45:21.532Z,58.8
2018-09-18T16:50:21.417Z,59.2
2018-09-18T16:55:21.491Z,59.6
2018-09-18T17:00:21.279Z,59.9
2018-09-18T17:05:21.421Z,60.1
2018-09-18T17:10:26.044Z,60.4
2018-09-18T17:15:21.317Z,60.8
2018-09-18T17:20:21.924Z,61.4
2018-09-18T17:25:21.508Z,61.4
2018-09-18T17:30:22.458Z,61.5
2018-09-18T17:35:29.586Z,62.4
2018-09-18T17:40:27.177Z,62.3
2018-09-18T17:45:21.439Z,63.1
2018-09-18T17:50:25.575Z,63.3
2018-09-18T17:55:21.278Z,64.8
2018-09-18T18:00:20.918Z,65
2018-09-18T18:05:21.213Z,65.8
2018-09-18T18:10:21.748Z,64.9
2018-09-18T18:15:21.470Z,65.4
2018-09-18T18:20:21.514Z,67.7
2018-09-18T18:25:21.779Z,67.8
2018-09-18T18:30:21.724Z,67.6
2018-09-18T18:35:20.863Z,68
2018-09-18T18:40:22.896Z,68.2
2018-09-18T18:45:20.898Z,69.3
2018-09-18T18:50:20.814Z,70
2018-09-18T18:55:20.887Z,70.4
2018-09-18T19:00:22.047Z,69.6
2018-09-18T19:05:20.814Z,71.3
2018-09-18T19:10:20.901Z,70.8
2018-09-18T19:15:20.907Z,71
2018-09-18T19:20:20.876Z,70.6
2018-09-18T19:25:20.822Z,70.1
2018-09-18T19:30:20.706Z,69.9
2018-09-18T19:35:20.924Z,69.2
2018-09-18T19:40:20.654Z,68.6
2018-09-18T19:45:20.565Z,68.8
2018-09-18T19:50:20.877Z,69.7
2018-09-18T19:55:20.603Z,70.6
2018-09-18T20:00:20.717Z,71.1
2018-09-18T20:05:20.724Z,71.4
2018-09-18T20:10:20.613Z,71.1
2018-09-18T20:15:20.660Z,72.1
2018-09-18T20:20:20.666Z,73.3
2018-09-18T20:25:20.618Z,73.9
2018-09-18T20:30:20.680Z,74.6
2018-09-18T20:35:20.790Z,76.3
2018-09-18T20:40:20.650Z,76.2
2018-09-18T20:45:20.604Z,77.5
2018-09-18T20:50:20.674Z,78
2018-09-18T20:55:20.693Z,78.1
2018-09-18T21:00:20.726Z,78.5
2018-09-18T21:05:20.507Z,77.7
2018-09-18T21:10:20.512Z,78.3
2018-09-18T21:15:20.784Z,78.8
2018-09-18T21:20:20.749Z,79.9
2018-09-18T21:25:20.807Z,79
2018-09-18T21:30:20.756Z,79.9
2018-09-18T21:35:20.725Z,79.4
2018-09-18T21:40:20.722Z,79.3
2018-09-18T21:45:20.671Z,80.5
2018-09-18T21:50:20.762Z,80.6
2018-09-18T21:55:20.702Z,79.7
2018-09-18T22:00:20.661Z,80
2018-09-18T22:05:20.753Z,79.9
2018-09-18T22:10:20.513Z,80.8
2018-09-18T22:15:20.871Z,80.9
2018-09-18T22:20:20.391Z,81.3
2018-09-18T22:25:20.359Z,81.7
2018-09-18T22:30:20.641Z,81.5
2018-09-18T22:35:20.565Z,81.8
2018-09-18T22:40:20.425Z,81.6
2018-09-18T22:45:20.771Z,81.2
2018-09-18T22:50:20.310Z,81.8
2018-09-18T22:55:20.439Z,82.5
2018-09-18T23:00:20.374Z,83.1
2018-09-18T23:05:22.872Z,82.4
2018-09-18T23:10:22.486Z,83.4
2018-09-18T23:15:22.523Z,82.9
2018-09-18T23:20:21.132Z,83.3
2018-09-18T23:25:22.027Z,83.6
2018-09-18T23:30:20.899Z,83.6
2018-09-18T23:35:24.746Z,83.5
2018-09-18T23:40:23.214Z,83.1
2018-09-18T23:45:20.601Z,84.2
2018-09-18T23:50:20.504Z,85
2018-09-18T23:55:20.552Z,84.3
